createdAt,value
2022-11-22T00:00:39.018Z,69.21
2022-11-22T00:03:05.915Z,68.86
2022-11-22T00:05:32.702Z,68.67
2022-11-22T00:08:00.719Z,69.10
2022-11-22T00:10:27.536Z,68.65
2022-11-22T00:12:54.668Z,68.67
2022-11-22T00:15:21.389Z,69.29
2022-11-22T00:17:49.030Z,69.62
2022-11-22T00:20:15.893Z,69.74
2022-11-22T00:22:44.734Z,69.68
2022-11-22T00:25:11.805Z,69.69
2022-11-22T00:27:41.710Z,69.11
2022-11-22T00:30:09.128Z,69.66
2022-11-22T00:32:35.843Z,69.50
2022-11-22T00:35:03.007Z,69.72
2022-11-22T00:37:29.693Z,70.04
2022-11-22T00:39:56.371Z,70.33
2022-11-22T00:42:23.110Z,69.50
2022-11-22T00:44:49.806Z,69.58
2022-11-22T00:47:16.506Z,69.68
2022-11-22T00:49:43.125Z,69.00
2022-11-22T00:52:09.974Z,69.35
2022-11-22T00:54:36.724Z,69.57
2022-11-22T00:57:03.486Z,69.39
2022-11-22T00:59:30.557Z,69.43
2022-11-22T01:01:57.575Z,69.95
2022-11-22T01:04:24.265Z,69.95
2022-11-22T01:06:51.009Z,70.22
2022-11-22T01:09:20.652Z,70.00
2022-11-22T01:11:47.771Z,69.67
2022-11-22T01:14:15.137Z,69.71
2022-11-22T01:16:41.879Z,69.81
2022-11-22T01:19:08.824Z,69.82
2022-11-22T01:21:35.428Z,69.93
2022-11-22T01:24:02.136Z,70.08
2022-11-22T01:26:28.886Z,70.61
2022-11-22T01:28:56.615Z,70.17
2022-11-22T01:31:23.313Z,70.08
2022-11-22T01:33:49.988Z,70.37
2022-11-22T01:36:16.703Z,69.83
2022-11-22T01:38:43.379Z,70.34
2022-11-22T01:41:10.071Z,70.08
2022-11-22T01:43:39.938Z,70.08
2022-11-22T01:46:10.324Z,70.27
2022-11-22T01:48:47.394Z,69.90
2022-11-22T01:51:27.597Z,70.02
2022-11-22T01:53:57.370Z,69.93
2022-11-22T01:56:24.740Z,70.03
2022-11-22T01:58:56.672Z,69.67
2022-11-22T02:01:29.777Z,70.02
2022-11-22T02:04:00.830Z,70.13
2022-11-22T02:06:34.744Z,69.54
2022-11-22T02:09:09.402Z,69.82
2022-11-22T02:11:39.158Z,69.67
2022-11-22T02:14:09.611Z,69.85
2022-11-22T02:16:37.464Z,69.87
2022-11-22T02:19:05.268Z,68.77
2022-11-22T02:21:31.973Z,69.35
2022-11-22T02:24:07.804Z,69.94
2022-11-22T02:26:34.554Z,70.22
2022-11-22T02:29:04.865Z,70.12
2022-11-22T02:31:35.622Z,70.21
2022-11-22T02:34:02.398Z,69.87
2022-11-22T02:36:30.580Z,69.94
2022-11-22T02:38:57.296Z,69.97
2022-11-22T02:41:24.181Z,70.19
2022-11-22T02:43:51.002Z,69.97
2022-11-22T02:46:27.029Z,70.40
2022-11-22T02:48:53.745Z,70.33
2022-11-22T02:51:20.672Z,70.15
2022-11-22T02:53:49.335Z,69.78
2022-11-22T02:56:16.743Z,69.64
2022-11-22T02:58:44.107Z,69.95
2022-11-22T03:01:11.939Z,69.97
2022-11-22T03:03:38.708Z,70.27
2022-11-22T03:06:05.471Z,70.09
2022-11-22T03:08:33.486Z,69.90
2022-11-22T03:11:00.594Z,70.66
2022-11-22T03:13:27.320Z,71.12
2022-11-22T03:15:54.050Z,71.09
2022-11-22T03:18:20.784Z,70.84
2022-11-22T03:20:47.416Z,71.54
2022-11-22T03:23:14.054Z,71.36
2022-11-22T03:25:40.713Z,71.59
2022-11-22T03:28:07.859Z,71.30
2022-11-22T03:30:34.659Z,70.81
2022-11-22T03:33:04.364Z,71.24
2022-11-22T03:35:31.189Z,72.02
2022-11-22T03:37:57.868Z,72.33
2022-11-22T03:40:25.535Z,71.71
2022-11-22T03:42:52.197Z,71.60
2022-11-22T03:45:18.902Z,71.94
2022-11-22T03:47:45.539Z,71.65
2022-11-22T03:50:12.253Z,72.05
2022-11-22T03:52:38.952Z,72.66
2022-11-22T03:55:05.657Z,72.51
2022-11-22T03:57:32.342Z,72.06
2022-11-22T03:59:59.007Z,71.83
2022-11-22T04:02:25.731Z,71.67
2022-11-22T04:04:52.453Z,71.76
2022-11-22T04:07:19.117Z,72.27
2022-11-22T04:09:45.787Z,72.04
2022-11-22T04:12:12.511Z,71.40
2022-11-22T04:14:57.783Z,71.30
2022-11-22T04:17:45.151Z,71.90
2022-11-22T04:20:45.621Z,72.11
2022-11-22T04:23:14.588Z,72.18
2022-11-22T04:25:43.832Z,72.78
2022-11-22T04:28:11.687Z,72.80
2022-11-22T04:30:56.947Z,72.29
2022-11-22T04:33:23.806Z,72.19
2022-11-22T04:35:51.146Z,72.72
2022-11-22T04:38:18.299Z,72.63
2022-11-22T04:40:45.240Z,72.82
2022-11-22T04:43:41.091Z,72.97
2022-11-22T04:46:08.306Z,73.30
2022-11-22T04:48:35.254Z,73.11
2022-11-22T04:51:21.168Z,73.87
2022-11-22T04:53:47.950Z,74.12
2022-11-22T04:56:18.087Z,74.10
2022-11-22T04:58:44.759Z,73.96
2022-11-22T05:01:11.489Z,74.24
2022-11-22T05:03:38.161Z,74.08
2022-11-22T05:06:05.695Z,74.41
2022-11-22T05:08:32.813Z,75.18
2022-11-22T05:10:59.934Z,75.37
2022-11-22T05:13:28.287Z,75.07
2022-11-22T05:15:55.535Z,74.74
2022-11-22T05:18:23.144Z,75.13
2022-11-22T05:20:50.272Z,75.20
2022-11-22T05:23:36.111Z,75.24
2022-11-22T05:26:02.745Z,75.04
2022-11-22T05:28:31.094Z,75.25
2022-11-22T05:30:57.772Z,76.47
2022-11-22T05:33:24.524Z,76.11
2022-11-22T05:35:51.590Z,75.44
2022-11-22T05:38:18.378Z,75.32
2022-11-22T05:40:45.184Z,74.97
2022-11-22T05:43:11.844Z,75.09
2022-11-22T05:45:38.678Z,75.10
2022-11-22T05:48:05.490Z,74.83
2022-11-22T05:50:32.235Z,74.86
2022-11-22T05:53:03.225Z,75.45
2022-11-22T05:55:30.859Z,75.38
2022-11-22T05:58:01.599Z,75.56
2022-11-22T06:00:29.971Z,75.78
2022-11-22T06:03:01.722Z,75.56
2022-11-22T06:05:29.113Z,75.43
2022-11-22T06:08:03.104Z,76.29
2022-11-22T06:10:29.977Z,76.16
2022-11-22T06:12:56.752Z,75.63
2022-11-22T06:15:23.493Z,75.71
2022-11-22T06:17:50.472Z,75.77
2022-11-22T06:20:17.235Z,75.73
2022-11-22T06:22:44.037Z,76.41
2022-11-22T06:25:10.996Z,75.88
2022-11-22T06:27:37.628Z,75.75
2022-11-22T06:30:04.539Z,75.71
2022-11-22T06:32:33.854Z,75.37
2022-11-22T06:35:01.551Z,75.85
2022-11-22T06:37:28.990Z,75.53
2022-11-22T06:39:55.632Z,75.51
2022-11-22T06:42:22.235Z,75.86
2022-11-22T06:44:48.885Z,75.72
2022-11-22T06:47:17.636Z,75.52
2022-11-22T06:49:45.551Z,75.57
2022-11-22T06:52:12.415Z,75.67
2022-11-22T06:54:39.243Z,75.16
2022-11-22T06:57:05.905Z,75.23
2022-11-22T06:59:32.817Z,75.16
2022-11-22T07:02:05.789Z,74.91
2022-11-22T07:04:33.237Z,75.17
2022-11-22T07:06:59.847Z,75.26
2022-11-22T07:09:26.521Z,75.02
2022-11-22T07:11:53.224Z,74.80
2022-11-22T07:14:19.926Z,75.10
2022-11-22T07:16:46.507Z,74.28
2022-11-22T07:19:13.216Z,74.44
2022-11-22T07:21:39.984Z,74.16
2022-11-22T07:24:07.435Z,74.62
2022-11-22T07:26:34.052Z,74.33
2022-11-22T07:29:00.729Z,74.39
2022-11-22T07:31:28.355Z,74.88
2022-11-22T07:33:57.121Z,75.02
2022-11-22T07:36:24.139Z,74.30
2022-11-22T07:38:51.596Z,74.18
2022-11-22T07:41:19.997Z,74.13
2022-11-22T07:43:47.464Z,74.65
2022-11-22T07:46:32.164Z,74.16
2022-11-22T07:49:00.105Z,74.28
2022-11-22T07:51:27.748Z,74.54
2022-11-22T07:53:55.818Z,74.67
2022-11-22T07:56:22.634Z,74.20
2022-11-22T07:58:58.727Z,74.03
2022-11-22T08:01:27.576Z,74.57
2022-11-22T08:03:54.400Z,74.65
2022-11-22T08:06:21.169Z,74.94
2022-11-22T08:08:47.785Z,74.98
2022-11-22T08:11:14.509Z,74.61
2022-11-22T08:13:41.410Z,74.78
2022-11-22T08:16:15.457Z,74.79
2022-11-22T08:18:46.440Z,74.85
2022-11-22T08:21:14.703Z,74.40
2022-11-22T08:23:42.617Z,74.87
2022-11-22T08:26:12.686Z,75.35
2022-11-22T08:28:40.083Z,75.14
2022-11-22T08:31:09.398Z,74.43
2022-11-22T08:33:36.600Z,74.34
2022-11-22T08:36:03.415Z,74.74
2022-11-22T08:38:36.315Z,75.04
2022-11-22T08:41:04.300Z,74.60
2022-11-22T08:43:31.980Z,74.66
2022-11-22T08:45:59.615Z,75.07
2022-11-22T08:48:26.913Z,75.01
2022-11-22T08:50:58.823Z,75.01
2022-11-22T08:53:25.879Z,74.54
2022-11-22T08:55:53.396Z,74.88
2022-11-22T08:58:20.184Z,74.84
2022-11-22T09:00:46.961Z,74.94
2022-11-22T09:03:13.695Z,74.84
2022-11-22T09:08:29.013Z,75.04
2022-11-22T09:11:06.501Z,75.19
2022-11-22T09:13:33.681Z,75.39
2022-11-22T09:16:11.591Z,75.32
2022-11-22T09:18:38.863Z,76.14
2022-11-22T09:21:08.261Z,76.29
2022-11-22T09:23:35.543Z,76.29
2022-11-22T09:26:11.253Z,76.50
2022-11-22T09:28:37.918Z,76.34
2022-11-22T09:31:07.463Z,75.93
2022-11-22T09:33:35.605Z,76.80
2022-11-22T09:36:13.076Z,76.32
2022-11-22T09:38:40.329Z,75.55
2022-11-22T09:41:16.344Z,75.64
2022-11-22T09:44:00.438Z,75.69
2022-11-22T09:46:47.443Z,76.21
2022-11-22T09:49:24.219Z,75.28
2022-11-22T09:52:15.790Z,75.37
2022-11-22T09:54:52.260Z,75.52
2022-11-22T09:57:23.896Z,75.72
2022-11-22T10:00:04.033Z,75.68
2022-11-22T10:03:00.018Z,75.70
2022-11-22T10:05:42.725Z,76.09
2022-11-22T10:08:27.961Z,76.33
2022-11-22T10:10:56.157Z,76.15
2022-11-22T10:13:30.325Z,75.53
2022-11-22T10:16:28.090Z,75.55
2022-11-22T10:19:01.168Z,75.43
2022-11-22T10:21:27.879Z,75.40
2022-11-22T10:23:54.761Z,75.89
2022-11-22T10:26:25.730Z,76.16
2022-11-22T10:29:07.285Z,76.08
2022-11-22T10:31:43.366Z,76.45
2022-11-22T10:34:17.128Z,76.39
2022-11-22T10:36:47.027Z,76.07
2022-11-22T10:39:19.769Z,75.85
2022-11-22T10:42:05.453Z,75.87
2022-11-22T10:44:47.378Z,75.62
2022-11-22T10:47:41.557Z,76.19
2022-11-22T10:50:17.181Z,76.61
2022-11-22T10:52:56.370Z,75.81
2022-11-22T10:55:35.409Z,75.55
2022-11-22T10:58:34.506Z,75.18
2022-11-22T11:01:30.967Z,75.36
2022-11-22T11:03:59.526Z,75.54
2022-11-22T11:07:10.372Z,75.19
2022-11-22T11:12:20.099Z,74.64
2022-11-22T11:14:49.972Z,75.22
2022-11-22T11:17:27.803Z,75.29
2022-11-22T11:19:58.098Z,75.05
2022-11-22T11:22:58.723Z,75.16
2022-11-22T11:25:40.826Z,74.69
2022-11-22T11:28:11.375Z,74.91
2022-11-22T11:30:50.147Z,75.14
2022-11-22T11:33:20.639Z,75.80
2022-11-22T11:35:47.757Z,75.67
2022-11-22T11:38:50.399Z,75.75
2022-11-22T11:41:41.932Z,76.38
2022-11-22T11:44:25.807Z,75.89
2022-11-22T11:46:52.541Z,76.84
2022-11-22T11:49:23.785Z,75.99
2022-11-22T11:52:10.271Z,75.99
2022-11-22T11:54:45.030Z,75.49
2022-11-22T11:57:23.352Z,75.52
2022-11-22T11:59:50.477Z,75.63
2022-11-22T12:02:26.728Z,75.58
2022-11-22T12:05:04.069Z,75.69
2022-11-22T12:07:34.085Z,75.84
2022-11-22T12:10:01.412Z,75.66
2022-11-22T12:12:46.959Z,75.96
2022-11-22T12:15:21.513Z,75.10
2022-11-22T12:18:23.264Z,76.12
2022-11-22T12:21:03.399Z,75.39
2022-11-22T12:23:45.471Z,75.42
2022-11-22T12:26:16.466Z,75.20
2022-11-22T12:28:43.451Z,75.55
2022-11-22T12:31:27.866Z,75.21
2022-11-22T12:34:01.160Z,75.73
2022-11-22T12:36:40.226Z,75.33
2022-11-22T12:39:11.718Z,75.34
2022-11-22T12:41:40.395Z,75.32
2022-11-22T12:44:12.237Z,75.31
2022-11-22T12:46:50.538Z,75.47
2022-11-22T12:49:32.317Z,74.96
2022-11-22T12:52:25.910Z,75.02
2022-11-22T12:55:16.960Z,75.62
2022-11-22T12:58:05.262Z,74.86
2022-11-22T13:00:36.451Z,75.06
2022-11-22T13:03:13.535Z,75.33
2022-11-22T13:05:45.132Z,75.81
2022-11-22T13:08:19.532Z,75.56
2022-11-22T13:10:53.734Z,75.56
2022-11-22T13:13:27.630Z,75.18
2022-11-22T13:15:56.024Z,75.25
2022-11-22T13:18:33.144Z,75.46
2022-11-22T13:21:11.459Z,75.20
2022-11-22T13:24:12.040Z,75.87
2022-11-22T13:27:10.089Z,75.50
2022-11-22T13:29:37.227Z,75.27
2022-11-22T13:32:16.613Z,75.41
2022-11-22T13:35:01.082Z,75.17
2022-11-22T13:37:32.975Z,74.94
2022-11-22T13:40:11.509Z,74.44
2022-11-22T13:42:38.603Z,74.24
2022-11-22T13:45:20.746Z,74.53
2022-11-22T13:47:47.708Z,74.76
2022-11-22T13:50:44.504Z,75.60
2022-11-22T13:53:24.104Z,75.55
2022-11-22T13:55:50.957Z,75.47
2022-11-22T13:58:27.045Z,75.43
2022-11-22T14:00:55.164Z,75.61
2022-11-22T14:03:38.108Z,75.01
2022-11-22T14:06:29.156Z,75.10
2022-11-22T14:09:27.462Z,75.40
2022-11-22T14:11:57.395Z,75.16
2022-11-22T14:14:55.068Z,74.57
2022-11-22T14:17:51.283Z,75.35
2022-11-22T14:20:30.172Z,75.03
2022-11-22T14:23:18.626Z,74.65
2022-11-22T14:26:30.417Z,74.15
2022-11-22T14:29:28.054Z,74.63
2022-11-22T14:32:11.203Z,75.22
2022-11-22T14:35:03.729Z,75.28
2022-11-22T14:37:33.867Z,74.82
2022-11-22T14:40:06.593Z,74.97
2022-11-22T14:42:40.151Z,74.80
2022-11-22T14:45:10.263Z,74.56
2022-11-22T14:47:59.951Z,74.14
2022-11-22T14:50:28.600Z,74.51
2022-11-22T14:53:04.614Z,73.86
2022-11-22T14:55:33.040Z,74.25
2022-11-22T14:58:06.828Z,74.60
2022-11-22T15:00:41.964Z,74.48
2022-11-22T15:03:30.436Z,74.38
2022-11-22T15:09:11.391Z,74.99
2022-11-22T15:09:52.433Z,74.77
2022-11-22T15:12:27.204Z,74.43
2022-11-22T15:59:44.356Z,74.72
2022-11-22T16:02:18.384Z,75.48
2022-11-22T16:06:06.252Z,74.86
2022-11-22T16:07:39.600Z,74.93
2022-11-22T16:10:16.987Z,75.34
2022-11-22T16:12:47.527Z,75.04
2022-11-22T16:15:28.386Z,74.43
2022-11-22T16:18:07.792Z,74.30
2022-11-22T16:20:39.679Z,75.15
2022-11-22T16:23:09.088Z,75.19
2022-11-22T16:25:41.984Z,74.50
2022-11-22T16:28:44.027Z,74.58
2022-11-22T16:31:21.676Z,74.91
2022-11-22T16:33:48.981Z,75.42
2022-11-22T16:36:16.926Z,74.99
2022-11-22T16:38:44.176Z,75.12
2022-11-22T16:41:25.517Z,75.92
2022-11-22T16:43:54.436Z,75.49
2022-11-22T16:46:21.494Z,75.36
2022-11-22T16:48:48.347Z,75.29
2022-11-22T16:51:21.277Z,75.56
2022-11-22T16:54:16.540Z,74.75
2022-11-22T16:56:49.413Z,75.00
2022-11-22T16:59:16.274Z,75.60
2022-11-22T17:01:44.226Z,75.35
2022-11-22T17:04:25.442Z,75.30
2022-11-22T17:06:52.459Z,75.30
2022-11-22T17:09:21.984Z,75.42
2022-11-22T17:11:49.586Z,75.59
2022-11-22T17:14:18.376Z,75.48
2022-11-22T17:16:48.298Z,75.39
2022-11-22T17:19:52.008Z,75.15
2022-11-22T17:22:06.941Z,75.12
2022-11-22T17:24:34.605Z,75.55
2022-11-22T17:27:01.553Z,75.50
2022-11-22T17:29:49.255Z,75.37
2022-11-22T17:32:15.115Z,74.99
2022-11-22T17:34:42.205Z,75.35
2022-11-22T17:37:12.760Z,74.74
2022-11-22T17:39:40.194Z,75.09
2022-11-22T17:42:07.345Z,75.15
2022-11-22T17:44:35.105Z,75.38
2022-11-22T17:47:33.079Z,75.52
2022-11-22T17:50:05.339Z,75.11
2022-11-22T17:52:32.300Z,74.87
2022-11-22T17:55:05.563Z,75.39
2022-11-22T17:57:34.022Z,74.84
2022-11-22T18:00:00.729Z,74.72
2022-11-22T18:02:27.542Z,75.11
2022-11-22T18:04:55.801Z,75.02
2022-11-22T18:07:24.251Z,74.60
2022-11-22T18:09:51.706Z,74.45
2022-11-22T18:12:19.032Z,75.26
2022-11-22T18:14:47.307Z,74.88
2022-11-22T18:17:14.534Z,74.63
2022-11-22T18:19:41.194Z,75.03
2022-11-22T18:22:08.051Z,75.42
2022-11-22T18:24:35.034Z,74.88
2022-11-22T18:27:02.622Z,74.49
2022-11-22T18:29:44.850Z,74.94
2022-11-22T18:32:11.962Z,74.87
2022-11-22T18:34:39.047Z,75.12
2022-11-22T18:37:05.960Z,75.96
2022-11-22T18:39:38.221Z,75.39
2022-11-22T18:42:07.944Z,75.18
2022-11-22T18:44:35.724Z,74.62
2022-11-22T18:47:02.592Z,75.06
2022-11-22T18:49:29.914Z,74.63
2022-11-22T18:51:57.076Z,75.17
2022-11-22T18:54:23.819Z,75.38
2022-11-22T18:56:51.616Z,76.12
2022-11-22T18:59:18.652Z,75.98
2022-11-22T19:01:45.571Z,75.48
2022-11-22T19:04:14.414Z,76.25
2022-11-22T19:06:42.107Z,76.13
2022-11-22T19:09:08.965Z,75.34
2022-11-22T19:11:35.841Z,75.46
2022-11-22T19:14:02.809Z,75.39
2022-11-22T19:16:30.482Z,76.14
2022-11-22T19:18:58.937Z,75.69
2022-11-22T19:21:28.069Z,75.01
2022-11-22T19:23:55.847Z,75.67
2022-11-22T19:26:24.653Z,75.54
2022-11-22T19:28:56.570Z,75.37
2022-11-22T19:31:29.303Z,75.38
2022-11-22T19:33:57.464Z,75.80
2022-11-22T19:36:32.168Z,75.10
2022-11-22T19:38:59.281Z,75.31
2022-11-22T19:41:26.005Z,75.85
2022-11-22T19:43:52.782Z,75.55
2022-11-22T19:46:20.113Z,75.07
2022-11-22T19:48:51.725Z,75.50
2022-11-22T19:51:18.633Z,76.17
2022-11-22T19:53:45.315Z,75.35
2022-11-22T19:56:17.825Z,75.87
2022-11-22T19:58:50.443Z,75.31
2022-11-22T20:01:17.551Z,75.14
2022-11-22T20:03:45.078Z,74.84
2022-11-22T20:06:13.605Z,74.84
2022-11-22T20:08:40.496Z,74.61
2022-11-22T20:11:09.480Z,74.83
2022-11-22T20:13:38.419Z,74.96
2022-11-22T20:16:08.489Z,74.97
2022-11-22T20:18:35.529Z,74.62
2022-11-22T20:21:03.998Z,74.84
2022-11-22T20:23:32.236Z,75.26
2022-11-22T20:26:09.218Z,75.56
2022-11-22T20:28:39.992Z,75.40
2022-11-22T20:31:14.454Z,74.95
2022-11-22T20:33:44.016Z,74.75
2022-11-22T20:36:14.071Z,74.80
2022-11-22T20:38:41.956Z,75.08
2022-11-22T20:41:10.247Z,74.82
2022-11-22T20:43:37.462Z,75.20
2022-11-22T20:46:09.939Z,75.25
2022-11-22T20:48:37.836Z,75.05
2022-11-22T20:51:07.927Z,74.39
2022-11-22T20:53:35.302Z,74.14
2022-11-22T20:56:02.476Z,74.46
2022-11-22T20:58:32.368Z,74.29
2022-11-22T21:00:59.194Z,74.60
2022-11-22T21:03:27.478Z,74.60
2022-11-22T21:05:55.238Z,74.13
2022-11-22T21:08:22.833Z,74.50
2022-11-22T21:10:49.632Z,74.40
2022-11-22T21:13:17.371Z,74.45
2022-11-22T21:15:44.667Z,73.81
2022-11-22T21:18:27.613Z,74.22
2022-11-22T21:20:54.245Z,74.25
2022-11-22T21:23:21.385Z,74.10
2022-11-22T21:25:51.564Z,74.44
2022-11-22T21:28:18.492Z,74.79
2022-11-22T21:30:45.267Z,74.44
2022-11-22T21:33:12.434Z,74.20
2022-11-22T21:35:39.262Z,74.28
2022-11-22T21:38:06.075Z,74.55
2022-11-22T21:40:33.000Z,74.51
2022-11-22T21:42:59.766Z,74.47
2022-11-22T21:45:26.598Z,74.36
2022-11-22T21:47:53.278Z,73.83
2022-11-22T21:50:20.590Z,74.07
2022-11-22T21:52:47.306Z,74.09
2022-11-22T21:55:15.546Z,74.00
2022-11-22T21:57:42.278Z,73.59
2022-11-22T22:00:10.145Z,73.91
2022-11-22T22:02:36.842Z,73.83
2022-11-22T22:05:03.713Z,73.37
2022-11-22T22:07:51.398Z,73.35
2022-11-22T22:10:17.325Z,73.16
2022-11-22T22:12:44.813Z,73.00
2022-11-22T22:15:14.928Z,73.02
2022-11-22T22:17:41.854Z,73.66
2022-11-22T22:20:08.985Z,73.90
2022-11-22T22:22:38.719Z,73.74
2022-11-22T22:25:06.429Z,73.46
2022-11-22T22:27:33.491Z,73.61
2022-11-22T22:30:00.707Z,73.38
2022-11-22T22:32:28.036Z,73.58
2022-11-22T22:34:54.976Z,73.40
2022-11-22T22:37:21.726Z,73.51
2022-11-22T22:39:50.652Z,73.52
2022-11-22T22:42:19.429Z,73.96
2022-11-22T22:44:46.442Z,73.88
2022-11-22T22:47:13.611Z,74.17
2022-11-22T22:49:40.464Z,74.39
2022-11-22T22:52:07.245Z,74.40
2022-11-22T22:54:34.068Z,75.04
2022-11-22T22:57:01.083Z,75.69
2022-11-22T22:59:31.346Z,75.27
2022-11-22T23:01:58.169Z,75.60
2022-11-22T23:04:24.951Z,75.82
2022-11-22T23:06:51.603Z,75.09
2022-11-22T23:09:18.544Z,75.19
2022-11-22T23:12:04.039Z,75.13
2022-11-22T23:14:33.773Z,74.92
2022-11-22T23:17:00.549Z,75.02
2022-11-22T23:19:27.770Z,74.98
2022-11-22T23:21:55.454Z,75.03
2022-11-22T23:24:22.207Z,75.41
2022-11-22T23:26:48.887Z,75.61
2022-11-22T23:29:18.690Z,75.24
2022-11-22T23:31:45.403Z,75.39
2022-11-22T23:34:13.450Z,75.47
2022-11-22T23:36:41.266Z,75.43
2022-11-22T23:39:11.757Z,75.60
2022-11-22T23:41:38.412Z,75.58
2022-11-22T23:44:05.305Z,75.53
2022-11-22T23:46:32.425Z,75.36
2022-11-22T23:49:00.469Z,74.98
2022-11-22T23:51:28.550Z,75.91
2022-11-22T23:53:57.099Z,75.35
2022-11-22T23:56:24.208Z,75.59
2022-11-22T23:58:51.553Z,75.30
